createdAt,value
2023-04-07T00:00:55.242Z,35.25
2023-04-07T00:03:22.458Z,37.65
2023-04-07T00:05:49.815Z,37.20
2023-04-07T00:08:17.058Z,37.70
2023-04-07T00:10:44.179Z,33.30
2023-04-07T00:13:11.430Z,38.17
2023-04-07T00:15:38.795Z,40.55
2023-04-07T00:18:05.979Z,38.50
2023-04-07T00:20:33.183Z,37.42
2023-04-07T00:23:00.106Z,39.80
2023-04-07T00:25:27.235Z,40.30
2023-04-07T00:27:54.262Z,35.33
2023-04-07T00:30:21.522Z,35.20
2023-04-07T00:32:49.281Z,40.70
2023-04-07T00:35:16.705Z,40.53
2023-04-07T00:37:43.721Z,38.88
2023-04-07T00:40:11.224Z,41.90
2023-04-07T00:42:38.192Z,38.83
2023-04-07T00:45:06.496Z,39.33
2023-04-07T00:47:33.422Z,37.10
2023-04-07T00:50:00.580Z,38.40
2023-04-07T00:52:29.170Z,41.08
2023-04-07T00:54:56.393Z,36.50
2023-04-07T00:57:23.895Z,43.95
2023-04-07T00:59:52.894Z,39.13
2023-04-07T01:02:31.917Z,36.60
2023-04-07T01:05:17.413Z,37.42
2023-04-07T01:07:52.919Z,36.92
2023-04-07T01:10:41.295Z,39.83
2023-04-07T01:13:23.298Z,42.60
2023-04-07T01:15:58.646Z,41.72
2023-04-07T01:18:32.917Z,41.03
2023-04-07T01:21:04.416Z,40.35
2023-04-07T01:23:54.472Z,46.37
2023-04-07T01:26:26.663Z,43.92
2023-04-07T01:31:41.833Z,37.85
2023-04-07T01:34:13.599Z,41.10
2023-04-07T01:36:42.340Z,40.15
2023-04-07T01:39:09.947Z,41.17
2023-04-07T01:41:39.654Z,43.22
2023-04-07T01:44:08.747Z,39.90
2023-04-07T01:46:36.430Z,46.63
2023-04-07T01:49:05.087Z,46.88
2023-04-07T01:51:34.318Z,43.83
2023-04-07T01:54:02.436Z,45.90
2023-04-07T01:56:29.701Z,49.22
2023-04-07T01:58:58.209Z,44.38
2023-04-07T02:01:26.678Z,46.45
2023-04-07T02:04:12.920Z,50.65
2023-04-07T02:06:49.277Z,50.00
2023-04-07T02:09:21.652Z,42.38
2023-04-07T02:11:51.248Z,45.83
2023-04-07T02:14:21.411Z,49.63
2023-04-07T02:17:02.383Z,49.38
2023-04-07T02:19:30.538Z,49.13
2023-04-07T02:21:59.549Z,49.42
2023-04-07T02:24:26.660Z,54.38
2023-04-07T02:26:53.988Z,48.15
2023-04-07T02:29:21.033Z,60.22
2023-04-07T02:31:48.502Z,47.78
2023-04-07T02:34:15.589Z,49.90
2023-04-07T02:36:42.823Z,51.85
2023-04-07T02:39:10.554Z,58.13
2023-04-07T02:41:38.065Z,57.55
2023-04-07T02:44:05.063Z,56.20
2023-04-07T02:46:32.466Z,58.92
2023-04-07T02:49:00.118Z,57.35
2023-04-07T02:51:27.699Z,57.20
2023-04-07T02:53:55.543Z,55.17
2023-04-07T02:56:23.100Z,56.35
2023-04-07T02:58:50.489Z,59.03
2023-04-07T03:01:18.292Z,51.22
2023-04-07T03:03:47.828Z,57.42
2023-04-07T03:06:25.000Z,62.80
2023-04-07T03:09:07.200Z,56.00
2023-04-07T03:11:34.645Z,59.83
2023-04-07T03:14:01.682Z,61.40
2023-04-07T03:16:31.295Z,63.80
2023-04-07T03:19:04.160Z,55.67
2023-04-07T03:21:37.515Z,57.83
2023-04-07T03:24:05.990Z,61.88
2023-04-07T03:26:33.380Z,56.83
2023-04-07T03:29:01.423Z,64.55
2023-04-07T03:31:31.016Z,62.15
2023-04-07T03:33:58.160Z,68.20
2023-04-07T03:36:27.380Z,62.08
2023-04-07T03:38:57.788Z,60.50
2023-04-07T03:41:25.016Z,64.55
2023-04-07T03:43:52.406Z,61.35
2023-04-07T03:46:21.579Z,61.88
2023-04-07T03:48:48.578Z,58.03
2023-04-07T03:51:16.228Z,66.60
2023-04-07T03:53:45.834Z,61.60
2023-04-07T03:56:26.919Z,58.10
2023-04-07T03:58:55.847Z,64.57
2023-04-07T04:01:28.491Z,61.47
2023-04-07T04:03:58.077Z,69.70
2023-04-07T04:06:31.428Z,65.55
2023-04-07T04:09:06.920Z,61.47
2023-04-07T04:11:37.820Z,66.22
2023-04-07T04:14:06.610Z,65.28
2023-04-07T04:16:36.470Z,62.92
2023-04-07T04:19:09.578Z,60.78
2023-04-07T04:21:37.220Z,64.05
2023-04-07T04:24:04.642Z,61.08
2023-04-07T04:26:32.367Z,63.78
2023-04-07T04:29:06.391Z,65.93
2023-04-07T04:31:33.828Z,55.80
2023-04-07T04:34:01.417Z,63.22
2023-04-07T04:36:29.002Z,58.63
2023-04-07T04:39:01.448Z,61.88
2023-04-07T04:41:29.688Z,53.60
2023-04-07T04:43:57.500Z,63.00
2023-04-07T04:46:27.160Z,59.60
2023-04-07T04:48:54.680Z,58.50
2023-04-07T04:51:24.022Z,60.75
2023-04-07T04:53:56.512Z,62.65
2023-04-07T04:56:26.184Z,55.72
2023-04-07T04:58:54.379Z,58.53
2023-04-07T05:01:34.055Z,56.65
2023-04-07T05:04:06.734Z,58.85
2023-04-07T05:06:35.065Z,61.08
2023-04-07T05:09:06.932Z,55.72
2023-04-07T05:11:42.568Z,66.00
2023-04-07T05:14:09.953Z,59.53
2023-04-07T05:16:41.388Z,58.30
2023-04-07T05:19:10.744Z,67.10
2023-04-07T05:21:37.916Z,61.80
2023-04-07T05:24:04.936Z,54.13
2023-04-07T05:26:34.500Z,56.40
2023-04-07T05:29:04.323Z,56.97
2023-04-07T05:31:31.972Z,58.75
2023-04-07T05:34:00.614Z,59.13
2023-04-07T05:36:35.781Z,56.08
2023-04-07T05:39:03.125Z,55.55
2023-04-07T05:41:30.545Z,64.03
2023-04-07T05:43:57.458Z,55.75
2023-04-07T05:46:26.550Z,62.33
2023-04-07T05:48:58.033Z,60.47
2023-04-07T05:51:27.724Z,53.80
2023-04-07T05:53:56.328Z,53.63
2023-04-07T05:56:26.240Z,53.47
2023-04-07T05:58:53.833Z,59.40
2023-04-07T06:01:21.472Z,51.47
2023-04-07T06:03:48.856Z,57.10
2023-04-07T06:06:26.330Z,52.15
2023-04-07T06:08:53.274Z,51.63
2023-04-07T06:11:23.335Z,54.53
2023-04-07T06:13:53.607Z,57.13
2023-04-07T06:16:21.304Z,54.83
2023-04-07T06:18:48.367Z,64.18
2023-04-07T06:21:15.892Z,49.40
2023-04-07T06:23:43.225Z,49.75
2023-04-07T06:26:14.580Z,55.20
2023-04-07T06:28:42.178Z,50.92
2023-04-07T06:31:10.416Z,54.67
2023-04-07T06:33:38.773Z,57.10
2023-04-07T06:36:06.438Z,56.38
2023-04-07T06:38:36.389Z,53.63
2023-04-07T06:41:04.066Z,53.10
2023-04-07T06:43:31.591Z,53.22
2023-04-07T06:46:03.501Z,55.92
2023-04-07T06:48:30.979Z,56.50
2023-04-07T06:50:58.472Z,52.15
2023-04-07T06:53:25.971Z,52.75
2023-04-07T06:56:06.750Z,54.83
2023-04-07T06:58:34.496Z,50.53
2023-04-07T07:01:02.673Z,49.72
2023-04-07T07:03:31.750Z,55.05
2023-04-07T07:05:59.957Z,53.33
2023-04-07T07:08:27.876Z,56.88
2023-04-07T07:10:55.926Z,50.50
2023-04-07T07:13:25.571Z,48.05
2023-04-07T07:15:53.461Z,44.50
2023-04-07T07:18:20.856Z,43.00
2023-04-07T07:20:48.176Z,44.88
2023-04-07T07:23:15.153Z,46.47
2023-04-07T07:25:42.829Z,48.00
2023-04-07T07:28:10.031Z,48.13
2023-04-07T07:30:40.451Z,44.47
2023-04-07T07:33:07.676Z,48.65
2023-04-07T07:35:34.944Z,47.45
2023-04-07T07:38:02.011Z,41.20
2023-04-07T07:40:31.980Z,42.67
2023-04-07T07:42:59.892Z,43.53
2023-04-07T07:45:27.890Z,45.63
2023-04-07T07:47:55.111Z,39.78
2023-04-07T07:50:22.698Z,40.03
2023-04-07T07:52:49.706Z,41.00
2023-04-07T07:55:17.279Z,42.72
2023-04-07T07:57:44.818Z,45.67
2023-04-07T08:00:12.410Z,44.78
2023-04-07T08:02:42.574Z,47.67
2023-04-07T08:05:11.392Z,43.08
2023-04-07T08:07:38.586Z,37.20
2023-04-07T08:10:06.542Z,38.97
2023-04-07T08:12:33.666Z,43.58
2023-04-07T08:15:02.708Z,41.47
2023-04-07T08:17:30.044Z,35.72
2023-04-07T08:19:58.147Z,33.42
2023-04-07T08:22:25.305Z,33.05
2023-04-07T08:24:52.638Z,37.95
2023-04-07T08:27:20.919Z,33.05
2023-04-07T08:30:00.634Z,31.15
2023-04-07T08:32:45.355Z,35.10
2023-04-07T08:35:13.550Z,35.00
2023-04-07T08:37:42.235Z,27.35
2023-04-07T08:40:10.724Z,28.70
2023-04-07T08:42:42.437Z,35.38
2023-04-07T08:45:10.697Z,30.80
2023-04-07T08:47:39.869Z,29.98
2023-04-07T08:50:10.440Z,30.13
2023-04-07T08:52:57.867Z,30.77
2023-04-07T08:55:26.397Z,37.83
2023-04-07T08:57:53.855Z,28.60
2023-04-07T09:00:22.144Z,30.83
2023-04-07T09:02:52.312Z,29.00
2023-04-07T09:05:22.414Z,28.50
2023-04-07T09:07:49.584Z,27.70
2023-04-07T09:10:18.019Z,28.55
2023-04-07T09:12:45.735Z,30.85
2023-04-07T09:15:13.129Z,26.73
2023-04-07T09:17:40.556Z,31.70
2023-04-07T09:20:08.345Z,29.73
2023-04-07T09:22:40.652Z,26.13
2023-04-07T09:25:14.550Z,28.92
2023-04-07T09:27:42.136Z,26.70
2023-04-07T09:30:15.792Z,27.67
2023-04-07T09:32:43.358Z,24.50
2023-04-07T09:35:10.832Z,28.98
2023-04-07T09:37:38.059Z,28.02
2023-04-07T09:40:06.262Z,27.88
2023-04-07T09:42:34.647Z,25.83
2023-04-07T09:45:02.272Z,27.27
2023-04-07T09:47:31.376Z,26.40
2023-04-07T09:50:06.728Z,32.08
2023-04-07T09:52:53.688Z,23.45
2023-04-07T09:55:23.229Z,25.38
2023-04-07T09:57:51.319Z,26.60
2023-04-07T10:00:18.706Z,24.95
2023-04-07T10:02:46.796Z,25.15
2023-04-07T10:05:15.060Z,24.33
2023-04-07T10:07:43.403Z,24.40
2023-04-07T10:10:11.524Z,31.13
2023-04-07T10:12:41.413Z,22.73
2023-04-07T10:15:09.432Z,32.03
2023-04-07T10:17:37.360Z,28.45
2023-04-07T10:20:07.175Z,26.10
2023-04-07T10:22:36.678Z,23.23
2023-04-07T10:25:10.167Z,27.13
2023-04-07T10:27:59.439Z,23.55
2023-04-07T10:30:33.099Z,21.55
2023-04-07T10:33:02.760Z,22.05
2023-04-07T10:36:16.366Z,26.00
2023-04-07T10:39:09.145Z,21.65
2023-04-07T10:41:39.256Z,22.90
2023-04-07T10:44:08.283Z,22.50
2023-04-07T10:46:45.207Z,22.90
2023-04-07T10:49:18.560Z,23.48
2023-04-07T10:52:12.379Z,23.80
2023-04-07T10:54:40.144Z,21.95
2023-04-07T10:57:18.331Z,21.60
2023-04-07T11:00:15.494Z,22.60
2023-04-07T11:02:44.791Z,22.90
2023-04-07T11:05:22.611Z,22.27
2023-04-07T11:07:55.225Z,20.40
2023-04-07T11:10:23.419Z,21.85
2023-04-07T11:13:20.140Z,23.08
2023-04-07T11:15:51.362Z,18.95
2023-04-07T11:20:47.633Z,18.67
2023-04-07T11:23:19.070Z,20.45
2023-04-07T11:25:48.101Z,22.98
2023-04-07T11:28:16.126Z,21.88
2023-04-07T11:30:50.254Z,20.20
2023-04-07T11:33:20.571Z,22.23
2023-04-07T11:35:51.734Z,20.10
2023-04-07T11:40:47.481Z,20.95
2023-04-07T11:43:23.304Z,20.00
2023-04-07T11:46:12.074Z,18.20
2023-04-07T11:48:41.848Z,22.17
2023-04-07T11:51:24.094Z,24.85
2023-04-07T11:53:56.492Z,16.90
2023-04-07T11:56:24.087Z,21.00
2023-04-07T11:58:53.448Z,19.52
2023-04-07T12:01:21.654Z,15.30
2023-04-07T12:04:04.259Z,17.40
2023-04-07T12:06:42.090Z,20.20
2023-04-07T12:09:31.837Z,18.23
2023-04-07T12:12:03.506Z,18.65
2023-04-07T12:14:31.723Z,19.83
2023-04-07T12:16:59.782Z,21.63
2023-04-07T12:19:28.536Z,20.15
2023-04-07T12:21:57.187Z,23.27
2023-04-07T12:24:25.133Z,21.50
2023-04-07T12:26:53.102Z,20.65
2023-04-07T12:29:20.694Z,21.35
2023-04-07T12:31:50.894Z,24.50
2023-04-07T12:34:19.172Z,23.25
2023-04-07T12:36:46.221Z,25.17
2023-04-07T12:39:14.208Z,18.63
2023-04-07T12:41:41.375Z,19.75
2023-04-07T12:44:08.734Z,15.55
2023-04-07T12:46:36.361Z,11.82
2023-04-07T12:49:03.674Z,7.10
2023-04-07T12:51:33.520Z,9.80
2023-04-07T12:54:04.537Z,4.53
2023-04-07T12:56:32.593Z,3.13
2023-04-07T12:59:00.057Z,4.20
2023-04-07T13:01:27.890Z,2.55
2023-04-07T13:03:56.192Z,2.67
2023-04-07T13:06:23.520Z,6.18
2023-04-07T13:08:51.808Z,3.22
2023-04-07T13:11:19.207Z,3.58
2023-04-07T13:13:47.154Z,3.33
2023-04-07T13:16:15.408Z,3.45
2023-04-07T13:18:42.852Z,3.65
2023-04-07T13:21:43.080Z,4.07
2023-04-07T13:23:58.348Z,3.05
2023-04-07T13:26:25.278Z,3.72
2023-04-07T13:28:52.677Z,5.70
2023-04-07T13:31:22.061Z,5.40
2023-04-07T13:33:50.198Z,4.75
2023-04-07T13:36:17.651Z,4.43
2023-04-07T13:38:45.127Z,6.10
2023-04-07T13:41:12.550Z,4.45
2023-04-07T13:43:40.246Z,5.07
2023-04-07T13:46:17.177Z,4.57
2023-04-07T13:48:53.147Z,3.90
2023-04-07T13:51:20.625Z,4.93
2023-04-07T13:53:48.458Z,4.50
2023-04-07T13:56:15.635Z,6.93
2023-04-07T13:58:43.270Z,5.63
2023-04-07T14:01:10.171Z,5.93
2023-04-07T14:03:37.749Z,4.53
2023-04-07T14:06:06.017Z,4.80
2023-04-07T14:08:34.078Z,4.60
2023-04-07T14:11:01.291Z,4.43
2023-04-07T14:13:29.250Z,4.05
2023-04-07T14:15:56.148Z,5.47
2023-04-07T14:18:24.842Z,6.60
2023-04-07T14:20:52.437Z,4.72
2023-04-07T14:23:30.261Z,4.60
2023-04-07T14:26:02.616Z,4.65
2023-04-07T14:28:31.697Z,4.35
2023-04-07T14:30:59.129Z,4.65
2023-04-07T14:33:26.997Z,5.18
2023-04-07T14:35:53.997Z,4.35
2023-04-07T14:38:25.898Z,4.07
2023-04-07T14:43:21.132Z,4.32
2023-04-07T14:45:48.240Z,5.00
2023-04-07T14:48:17.193Z,4.22
2023-04-07T14:50:44.070Z,5.15
2023-04-07T14:53:11.452Z,4.82
2023-04-07T14:55:38.629Z,4.40
2023-04-07T14:58:06.397Z,5.88
2023-04-07T15:00:33.441Z,4.78
2023-04-07T15:03:01.413Z,5.63
2023-04-07T15:05:30.109Z,7.40
2023-04-07T15:07:58.823Z,6.60
2023-04-07T15:10:25.899Z,4.85
2023-04-07T15:12:54.112Z,7.47
2023-04-07T15:15:24.557Z,5.43
2023-04-07T15:17:52.443Z,5.13
2023-04-07T15:20:19.824Z,7.13
2023-04-07T15:22:47.606Z,8.77
2023-04-07T15:25:14.617Z,5.15
2023-04-07T15:27:42.433Z,5.43
2023-04-07T15:30:09.999Z,5.30
2023-04-07T15:32:37.569Z,4.55
2023-04-07T15:35:05.697Z,4.80
2023-04-07T15:37:32.970Z,5.95
2023-04-07T15:40:00.252Z,7.05
2023-04-07T15:42:27.528Z,5.20
2023-04-07T15:44:54.955Z,5.13
2023-04-07T15:47:22.144Z,4.38
2023-04-07T15:49:49.646Z,5.57
2023-04-07T15:52:16.817Z,5.30
2023-04-07T15:54:44.295Z,5.28
2023-04-07T15:57:12.069Z,5.78
2023-04-07T15:59:39.761Z,5.30
2023-04-07T16:02:07.236Z,5.65
2023-04-07T16:04:34.545Z,5.20
2023-04-07T16:07:02.002Z,3.70
2023-04-07T16:09:29.783Z,4.35
2023-04-07T16:11:57.171Z,4.47
2023-04-07T16:14:29.207Z,5.20
2023-04-07T16:16:59.368Z,5.90
2023-04-07T16:19:27.031Z,8.13
2023-04-07T16:21:55.065Z,5.65
2023-04-07T16:24:22.980Z,5.95
2023-04-07T16:26:51.497Z,4.25
2023-04-07T16:29:20.302Z,5.05
2023-04-07T16:31:49.213Z,4.03
2023-04-07T16:34:16.873Z,6.50
2023-04-07T16:36:44.040Z,4.30
2023-04-07T16:39:11.626Z,6.10
2023-04-07T16:41:39.261Z,6.22
2023-04-07T16:44:06.133Z,6.00
2023-04-07T16:46:34.723Z,4.47
2023-04-07T16:49:03.451Z,7.03
2023-04-07T16:51:32.122Z,4.72
2023-04-07T16:53:59.301Z,5.38
2023-04-07T16:56:27.095Z,5.00
2023-04-07T16:58:54.219Z,4.97
2023-04-07T17:01:21.769Z,4.43
2023-04-07T17:03:49.572Z,3.95
2023-04-07T17:06:17.878Z,3.45
2023-04-07T17:08:44.971Z,6.38
2023-04-07T17:11:13.747Z,3.50
2023-04-07T17:13:41.147Z,7.10
2023-04-07T17:16:13.972Z,6.20
2023-04-07T17:18:41.538Z,4.65
2023-04-07T17:21:09.227Z,5.50
2023-04-07T17:23:37.737Z,7.07
2023-04-07T17:26:05.516Z,5.80
2023-04-07T17:28:32.985Z,4.97
2023-04-07T17:31:00.431Z,5.93
2023-04-07T17:33:29.620Z,5.90
2023-04-07T17:35:57.967Z,6.32
2023-04-07T17:38:25.296Z,17.95
2023-04-07T17:41:00.293Z,6.80
2023-04-07T17:43:31.908Z,6.38
2023-04-07T17:48:26.620Z,8.55
2023-04-07T17:50:54.384Z,6.35
2023-04-07T17:53:21.559Z,7.20
2023-04-07T17:55:49.614Z,6.47
2023-04-07T17:58:17.286Z,7.13
2023-04-07T18:00:44.900Z,5.10
2023-04-07T18:03:14.564Z,6.30
2023-04-07T18:05:45.660Z,5.35
2023-04-07T18:08:13.588Z,4.70
2023-04-07T18:10:41.420Z,4.40
2023-04-07T18:13:08.657Z,6.75
2023-04-07T18:15:36.323Z,6.53
2023-04-07T18:18:03.655Z,5.78
2023-04-07T18:20:31.656Z,5.43
2023-04-07T18:22:58.807Z,6.60
2023-04-07T18:25:27.097Z,5.35
2023-04-07T18:27:54.333Z,4.35
2023-04-07T18:30:21.876Z,5.60
2023-04-07T18:32:49.426Z,4.75
2023-04-07T18:35:16.924Z,5.60
2023-04-07T18:37:44.484Z,5.07
2023-04-07T18:40:14.153Z,4.97
2023-04-07T18:42:41.305Z,5.97
2023-04-07T18:45:08.936Z,4.97
2023-04-07T18:47:36.448Z,8.25
2023-04-07T18:50:05.138Z,7.30
2023-04-07T18:52:32.318Z,7.50
2023-04-07T18:55:00.028Z,7.68
2023-04-07T18:57:27.290Z,6.80
2023-04-07T18:59:55.165Z,7.32
2023-04-07T19:02:22.859Z,6.57
2023-04-07T19:04:50.700Z,7.05
2023-04-07T19:07:17.496Z,9.45
2023-04-07T19:09:45.483Z,10.05
2023-04-07T19:12:12.668Z,7.65
2023-04-07T19:14:40.646Z,9.55
2023-04-07T19:17:07.623Z,8.05
2023-04-07T19:19:34.848Z,9.10
2023-04-07T19:22:01.828Z,9.57
2023-04-07T19:24:29.631Z,10.85
2023-04-07T19:26:56.957Z,10.27
2023-04-07T19:29:24.401Z,12.32
2023-04-07T19:31:53.052Z,9.95
2023-04-07T19:34:20.554Z,8.88
2023-04-07T19:36:47.486Z,9.38
2023-04-07T19:39:14.963Z,9.70
2023-04-07T19:41:41.908Z,9.18
2023-04-07T19:44:09.311Z,11.43
2023-04-07T19:46:36.561Z,10.63
2023-04-07T19:49:04.188Z,11.27
2023-04-07T19:51:31.103Z,9.80
2023-04-07T19:53:59.013Z,9.27
2023-04-07T19:56:26.053Z,11.20
2023-04-07T19:58:53.440Z,5.60
2023-04-07T20:01:20.557Z,6.47
2023-04-07T20:03:48.073Z,9.55
2023-04-07T20:06:15.298Z,7.32
2023-04-07T20:08:43.006Z,7.22
2023-04-07T20:11:12.777Z,7.38
2023-04-07T20:13:41.556Z,8.23
2023-04-07T20:16:09.158Z,6.82
2023-04-07T20:18:36.689Z,8.40
2023-04-07T20:21:07.622Z,6.38
2023-04-07T20:26:02.522Z,6.43
2023-04-07T20:28:30.863Z,5.85
2023-04-07T20:30:57.780Z,6.40
2023-04-07T20:33:25.354Z,6.28
2023-04-07T20:35:53.053Z,5.15
2023-04-07T20:38:20.691Z,7.25
2023-04-07T20:40:47.646Z,6.20
2023-04-07T20:43:18.416Z,4.95
2023-04-07T20:45:47.547Z,6.80
2023-04-07T20:48:17.161Z,6.22
2023-04-07T20:50:44.935Z,5.78
2023-04-07T20:53:13.561Z,6.60
2023-04-07T20:55:41.387Z,6.00
2023-04-07T20:58:09.252Z,6.05
2023-04-07T21:00:37.515Z,5.38
2023-04-07T21:03:04.887Z,8.35
2023-04-07T21:05:32.257Z,8.93
2023-04-07T21:07:59.692Z,7.60
2023-04-07T21:10:26.873Z,9.65
2023-04-07T21:12:54.129Z,7.00
2023-04-07T21:15:21.679Z,8.90
2023-04-07T21:17:49.138Z,7.55
2023-04-07T21:20:16.642Z,9.23
2023-04-07T21:22:44.667Z,9.52
2023-04-07T21:25:12.831Z,9.25
2023-04-07T21:27:40.047Z,8.68
2023-04-07T21:30:07.688Z,8.55
2023-04-07T21:32:34.884Z,8.35
2023-04-07T21:35:02.111Z,8.75
2023-04-07T21:37:29.409Z,8.38
2023-04-07T21:39:57.206Z,9.18
2023-04-07T21:42:24.525Z,8.20
2023-04-07T21:44:51.847Z,9.82
2023-04-07T21:47:19.101Z,9.25
2023-04-07T21:49:46.586Z,8.63
2023-04-07T21:52:14.036Z,7.65
2023-04-07T21:54:41.093Z,11.35
2023-04-07T21:57:08.583Z,11.77
2023-04-07T21:59:38.465Z,10.50
2023-04-07T22:02:06.246Z,8.13
2023-04-07T22:04:33.423Z,8.07
2023-04-07T22:07:00.939Z,9.02
2023-04-07T22:09:28.304Z,9.32
2023-04-07T22:11:56.019Z,7.78
2023-04-07T22:14:25.046Z,9.07
2023-04-07T22:16:52.861Z,9.98
2023-04-07T22:19:19.825Z,9.32
2023-04-07T22:21:49.404Z,12.63
2023-04-07T22:24:16.571Z,8.43
2023-04-07T22:26:43.920Z,7.75
2023-04-07T22:29:12.020Z,8.07
2023-04-07T22:31:39.290Z,8.05
2023-04-07T22:34:06.436Z,9.68
2023-04-07T22:36:34.478Z,9.13
2023-04-07T22:39:01.443Z,9.40
2023-04-07T22:41:28.922Z,10.00
2023-04-07T22:43:56.070Z,9.93
2023-04-07T22:46:23.771Z,10.65
2023-04-07T22:48:51.981Z,11.90
2023-04-07T22:51:19.764Z,10.60
2023-04-07T22:53:46.719Z,11.15
2023-04-07T22:56:14.423Z,12.88
2023-04-07T22:58:42.263Z,13.15
2023-04-07T23:01:11.338Z,12.10
2023-04-07T23:03:38.410Z,11.73
2023-04-07T23:06:06.344Z,12.40
2023-04-07T23:08:33.937Z,14.30
2023-04-07T23:11:01.466Z,11.45
2023-04-07T23:13:28.591Z,12.18
2023-04-07T23:15:56.064Z,12.93
2023-04-07T23:18:22.989Z,12.23
2023-04-07T23:20:52.090Z,15.57
2023-04-07T23:23:18.936Z,15.27
2023-04-07T23:25:46.163Z,14.40
2023-04-07T23:28:13.345Z,13.60
2023-04-07T23:30:40.754Z,13.18
2023-04-07T23:33:08.082Z,13.15
2023-04-07T23:35:35.476Z,13.85
2023-04-07T23:38:03.404Z,16.00
2023-04-07T23:40:30.876Z,21.25
2023-04-07T23:42:58.151Z,20.73
2023-04-07T23:45:25.415Z,17.05
2023-04-07T23:47:52.519Z,17.23
2023-04-07T23:50:20.284Z,17.48
2023-04-07T23:52:48.160Z,16.50
2023-04-07T23:55:15.864Z,15.73
2023-04-07T23:57:43.205Z,16.92
